sensor_id;sensor_type;location;lat;lon;timestamp;P1;durP1;ratioP1;P2;durP2;ratioP2
73859;SDS011;62197;51.632;13.700;2023-01-06T00:02:14;6.57;;;3.25;;
73859;SDS011;62197;51.632;13.700;2023-01-06T00:04:39;8.55;;;3.38;;
73859;SDS011;62197;51.632;13.700;2023-01-06T00:07:05;6.75;;;3.33;;
73859;SDS011;62197;51.632;13.700;2023-01-06T00:09:30;6.28;;;2.80;;
73859;SDS011;62197;51.632;13.700;2023-01-06T00:11:57;6.38;;;2.50;;
73859;SDS011;62197;51.632;13.700;2023-01-06T00:14:23;4.90;;;2.42;;
73859;SDS011;62197;51.632;13.700;2023-01-06T00:16:48;5.00;;;2.28;;
73859;SDS011;62197;51.632;13.700;2023-01-06T00:19:13;5.90;;;2.90;;
73859;SDS011;62197;51.632;13.700;2023-01-06T00:21:39;6.03;;;2.75;;
73859;SDS011;62197;51.632;13.700;2023-01-06T00:24:06;6.32;;;3.00;;
73859;SDS011;62197;51.632;13.700;2023-01-06T00:28:57;7.23;;;2.90;;
73859;SDS011;62197;51.632;13.700;2023-01-06T00:31:23;5.82;;;3.10;;
73859;SDS011;62197;51.632;13.700;2023-01-06T00:33:48;5.43;;;2.90;;
73859;SDS011;62197;51.632;13.700;2023-01-06T00:36:14;10.07;;;3.53;;
73859;SDS011;62197;51.632;13.700;2023-01-06T00:38:39;7.82;;;2.90;;
73859;SDS011;62197;51.632;13.700;2023-01-06T00:41:09;7.63;;;2.88;;
73859;SDS011;62197;51.632;13.700;2023-01-06T00:43:57;5.85;;;3.08;;
73859;SDS011;62197;51.632;13.700;2023-01-06T00:46:23;5.95;;;2.88;;
73859;SDS011;62197;51.632;13.700;2023-01-06T00:48:52;6.78;;;3.05;;
73859;SDS011;62197;51.632;13.700;2023-01-06T00:51:18;5.88;;;3.00;;
73859;SDS011;62197;51.632;13.700;2023-01-06T00:53:43;5.57;;;3.10;;
73859;SDS011;62197;51.632;13.700;2023-01-06T00:56:09;5.65;;;3.28;;
73859;SDS011;62197;51.632;13.700;2023-01-06T00:58:34;9.00;;;3.38;;
73859;SDS011;62197;51.632;13.700;2023-01-06T01:01:06;6.88;;;3.33;;
73859;SDS011;62197;51.632;13.700;2023-01-06T01:03:33;4.75;;;2.88;;
73859;SDS011;62197;51.632;13.700;2023-01-06T01:06:04;5.13;;;2.58;;
73859;SDS011;62197;51.632;13.700;2023-01-06T01:08:31;7.20;;;3.20;;
73859;SDS011;62197;51.632;13.700;2023-01-06T01:11:04;6.10;;;3.20;;
73859;SDS011;62197;51.632;13.700;2023-01-06T01:13:34;6.63;;;3.67;;
73859;SDS011;62197;51.632;13.700;2023-01-06T01:16:04;6.07;;;2.97;;
73859;SDS011;62197;51.632;13.700;2023-01-06T01:18:31;7.63;;;3.38;;
73859;SDS011;62197;51.632;13.700;2023-01-06T01:20:56;5.47;;;2.70;;
73859;SDS011;62197;51.632;13.700;2023-01-06T01:23:22;6.05;;;3.42;;
73859;SDS011;62197;51.632;13.700;2023-01-06T01:25:47;6.90;;;2.80;;
73859;SDS011;62197;51.632;13.700;2023-01-06T01:28:12;7.75;;;3.30;;
73859;SDS011;62197;51.632;13.700;2023-01-06T01:30:38;7.10;;;3.22;;
73859;SDS011;62197;51.632;13.700;2023-01-06T01:33:03;8.02;;;2.97;;
73859;SDS011;62197;51.632;13.700;2023-01-06T01:35:28;6.15;;;3.15;;
73859;SDS011;62197;51.632;13.700;2023-01-06T01:37:54;8.45;;;3.40;;
73859;SDS011;62197;51.632;13.700;2023-01-06T01:40:19;9.95;;;3.50;;
73859;SDS011;62197;51.632;13.700;2023-01-06T01:42:44;7.47;;;3.35;;
73859;SDS011;62197;51.632;13.700;2023-01-06T01:45:21;7.03;;;3.40;;
73859;SDS011;62197;51.632;13.700;2023-01-06T01:48:09;7.97;;;2.85;;
73859;SDS011;62197;51.632;13.700;2023-01-06T01:50:47;8.45;;;2.90;;
73859;SDS011;62197;51.632;13.700;2023-01-06T01:53:17;8.48;;;3.08;;
73859;SDS011;62197;51.632;13.700;2023-01-06T01:55:49;6.28;;;2.90;;
73859;SDS011;62197;51.632;13.700;2023-01-06T01:58:19;11.18;;;3.45;;
73859;SDS011;62197;51.632;13.700;2023-01-06T02:00:47;6.57;;;3.25;;
73859;SDS011;62197;51.632;13.700;2023-01-06T02:03:14;7.35;;;3.58;;
73859;SDS011;62197;51.632;13.700;2023-01-06T02:05:44;7.13;;;3.42;;
73859;SDS011;62197;51.632;13.700;2023-01-06T02:08:22;9.15;;;3.38;;
73859;SDS011;62197;51.632;13.700;2023-01-06T02:10:53;9.73;;;2.97;;
73859;SDS011;62197;51.632;13.700;2023-01-06T02:13:19;10.52;;;3.92;;
73859;SDS011;62197;51.632;13.700;2023-01-06T02:15:44;10.32;;;3.22;;
73859;SDS011;62197;51.632;13.700;2023-01-06T02:18:20;9.13;;;3.47;;
73859;SDS011;62197;51.632;13.700;2023-01-06T02:21:19;7.25;;;2.95;;
73859;SDS011;62197;51.632;13.700;2023-01-06T02:24:19;9.43;;;3.05;;
73859;SDS011;62197;51.632;13.700;2023-01-06T02:27:24;7.53;;;3.45;;
73859;SDS011;62197;51.632;13.700;2023-01-06T02:33:17;8.60;;;3.53;;
73859;SDS011;62197;51.632;13.700;2023-01-06T02:36:00;6.60;;;3.47;;
73859;SDS011;62197;51.632;13.700;2023-01-06T02:41:40;6.40;;;3.55;;
73859;SDS011;62197;51.632;13.700;2023-01-06T02:46:51;9.77;;;3.22;;
73859;SDS011;62197;51.632;13.700;2023-01-06T02:49:53;8.57;;;3.80;;
73859;SDS011;62197;51.632;13.700;2023-01-06T02:55:05;14.40;;;3.70;;
73859;SDS011;62197;51.632;13.700;2023-01-06T02:57:55;7.78;;;3.50;;
73859;SDS011;62197;51.632;13.700;2023-01-06T03:00:31;9.20;;;4.10;;
73859;SDS011;62197;51.632;13.700;2023-01-06T03:03:00;7.78;;;3.53;;
73859;SDS011;62197;51.632;13.700;2023-01-06T03:05:29;11.80;;;3.45;;
73859;SDS011;62197;51.632;13.700;2023-01-06T03:07:56;13.05;;;4.78;;
73859;SDS011;62197;51.632;13.700;2023-01-06T03:10:26;8.90;;;4.40;;
73859;SDS011;62197;51.632;13.700;2023-01-06T03:13:09;8.02;;;3.83;;
73859;SDS011;62197;51.632;13.700;2023-01-06T03:15:44;7.03;;;4.13;;
73859;SDS011;62197;51.632;13.700;2023-01-06T03:18:10;11.65;;;4.15;;
73859;SDS011;62197;51.632;13.700;2023-01-06T03:20:35;9.38;;;3.92;;
73859;SDS011;62197;51.632;13.700;2023-01-06T03:23:01;8.15;;;3.20;;
73859;SDS011;62197;51.632;13.700;2023-01-06T03:25:26;10.38;;;3.53;;
73859;SDS011;62197;51.632;13.700;2023-01-06T03:27:52;9.75;;;3.80;;
73859;SDS011;62197;51.632;13.700;2023-01-06T03:30:17;10.07;;;3.83;;
73859;SDS011;62197;51.632;13.700;2023-01-06T03:32:47;9.88;;;3.28;;
73859;SDS011;62197;51.632;13.700;2023-01-06T03:35:34;7.80;;;3.25;;
73859;SDS011;62197;51.632;13.700;2023-01-06T03:38:30;5.43;;;2.95;;
73859;SDS011;62197;51.632;13.700;2023-01-06T03:41:21;7.13;;;3.05;;
73859;SDS011;62197;51.632;13.700;2023-01-06T03:44:22;8.07;;;3.30;;
73859;SDS011;62197;51.632;13.700;2023-01-06T03:46:59;6.60;;;2.85;;
73859;SDS011;62197;51.632;13.700;2023-01-06T03:49:32;8.57;;;3.67;;
73859;SDS011;62197;51.632;13.700;2023-01-06T03:52:12;9.60;;;3.70;;
73859;SDS011;62197;51.632;13.700;2023-01-06T03:54:58;10.43;;;3.83;;
73859;SDS011;62197;51.632;13.700;2023-01-06T03:57:33;7.82;;;3.78;;
73859;SDS011;62197;51.632;13.700;2023-01-06T04:00:03;6.90;;;3.17;;
73859;SDS011;62197;51.632;13.700;2023-01-06T04:02:32;7.78;;;3.03;;
73859;SDS011;62197;51.632;13.700;2023-01-06T04:05:07;7.35;;;3.15;;
73859;SDS011;62197;51.632;13.700;2023-01-06T04:07:37;7.55;;;2.63;;
73859;SDS011;62197;51.632;13.700;2023-01-06T04:10:04;8.80;;;3.13;;
73859;SDS011;62197;51.632;13.700;2023-01-06T04:12:30;8.27;;;2.92;;
73859;SDS011;62197;51.632;13.700;2023-01-06T04:15:08;7.38;;;2.83;;
73859;SDS011;62197;51.632;13.700;2023-01-06T04:17:35;5.07;;;2.35;;
73859;SDS011;62197;51.632;13.700;2023-01-06T04:20:02;6.18;;;2.70;;
73859;SDS011;62197;51.632;13.700;2023-01-06T04:22:28;6.07;;;3.22;;
73859;SDS011;62197;51.632;13.700;2023-01-06T04:24:53;5.28;;;2.30;;
73859;SDS011;62197;51.632;13.700;2023-01-06T04:27:19;5.90;;;2.30;;
73859;SDS011;62197;51.632;13.700;2023-01-06T04:29:44;6.63;;;2.28;;
73859;SDS011;62197;51.632;13.700;2023-01-06T04:32:09;7.47;;;2.58;;
73859;SDS011;62197;51.632;13.700;2023-01-06T04:34:35;5.20;;;2.10;;
73859;SDS011;62197;51.632;13.700;2023-01-06T04:37:00;6.25;;;2.08;;
73859;SDS011;62197;51.632;13.700;2023-01-06T04:39:25;7.15;;;2.17;;
73859;SDS011;62197;51.632;13.700;2023-01-06T04:41:51;7.72;;;2.10;;
73859;SDS011;62197;51.632;13.700;2023-01-06T04:44:16;5.93;;;2.10;;
73859;SDS011;62197;51.632;13.700;2023-01-06T04:46:42;6.75;;;2.85;;
73859;SDS011;62197;51.632;13.700;2023-01-06T04:49:07;7.68;;;2.08;;
73859;SDS011;62197;51.632;13.700;2023-01-06T04:51:32;5.57;;;2.58;;
73859;SDS011;62197;51.632;13.700;2023-01-06T04:53:58;4.65;;;1.83;;
73859;SDS011;62197;51.632;13.700;2023-01-06T04:56:23;2.90;;;1.73;;
73859;SDS011;62197;51.632;13.700;2023-01-06T04:58:52;6.40;;;2.17;;
73859;SDS011;62197;51.632;13.700;2023-01-06T05:01:19;5.78;;;1.83;;
73859;SDS011;62197;51.632;13.700;2023-01-06T05:03:44;6.82;;;2.00;;
73859;SDS011;62197;51.632;13.700;2023-01-06T05:06:10;6.80;;;1.85;;
73859;SDS011;62197;51.632;13.700;2023-01-06T05:11:03;5.03;;;2.13;;
73859;SDS011;62197;51.632;13.700;2023-01-06T05:13:32;4.40;;;1.90;;
73859;SDS011;62197;51.632;13.700;2023-01-06T05:15:58;5.38;;;1.80;;
73859;SDS011;62197;51.632;13.700;2023-01-06T05:18:23;5.53;;;1.73;;
73859;SDS011;62197;51.632;13.700;2023-01-06T05:20:49;8.93;;;3.40;;
73859;SDS011;62197;51.632;13.700;2023-01-06T05:23:15;6.80;;;1.83;;
73859;SDS011;62197;51.632;13.700;2023-01-06T05:25:41;5.13;;;2.00;;
73859;SDS011;62197;51.632;13.700;2023-01-06T05:28:06;7.82;;;2.10;;
73859;SDS011;62197;51.632;13.700;2023-01-06T05:30:31;8.73;;;2.30;;
73859;SDS011;62197;51.632;13.700;2023-01-06T05:32:57;7.60;;;1.88;;
73859;SDS011;62197;51.632;13.700;2023-01-06T05:35:22;13.20;;;2.65;;
73859;SDS011;62197;51.632;13.700;2023-01-06T05:37:47;6.18;;;2.38;;
73859;SDS011;62197;51.632;13.700;2023-01-06T05:40:13;8.57;;;2.22;;
73859;SDS011;62197;51.632;13.700;2023-01-06T05:42:38;5.65;;;2.03;;
73859;SDS011;62197;51.632;13.700;2023-01-06T05:45:04;5.97;;;2.13;;
73859;SDS011;62197;51.632;13.700;2023-01-06T05:47:29;3.88;;;1.65;;
73859;SDS011;62197;51.632;13.700;2023-01-06T05:49:55;4.40;;;1.80;;
73859;SDS011;62197;51.632;13.700;2023-01-06T05:52:20;7.40;;;2.33;;
73859;SDS011;62197;51.632;13.700;2023-01-06T05:54:45;5.38;;;1.90;;
73859;SDS011;62197;51.632;13.700;2023-01-06T05:57:11;6.95;;;1.98;;
73859;SDS011;62197;51.632;13.700;2023-01-06T05:59:36;8.90;;;2.53;;
73859;SDS011;62197;51.632;13.700;2023-01-06T06:02:01;7.55;;;2.60;;
73859;SDS011;62197;51.632;13.700;2023-01-06T06:04:27;7.93;;;2.30;;
73859;SDS011;62197;51.632;13.700;2023-01-06T06:06:52;6.05;;;2.35;;
73859;SDS011;62197;51.632;13.700;2023-01-06T06:09:18;8.02;;;2.58;;
73859;SDS011;62197;51.632;13.700;2023-01-06T06:11:43;8.02;;;2.30;;
73859;SDS011;62197;51.632;13.700;2023-01-06T06:14:08;10.75;;;2.60;;
73859;SDS011;62197;51.632;13.700;2023-01-06T06:19:00;11.02;;;3.00;;
73859;SDS011;62197;51.632;13.700;2023-01-06T06:21:26;8.55;;;3.15;;
73859;SDS011;62197;51.632;13.700;2023-01-06T06:23:53;11.95;;;2.83;;
73859;SDS011;62197;51.632;13.700;2023-01-06T06:26:20;7.05;;;2.92;;
73859;SDS011;62197;51.632;13.700;2023-01-06T06:28:46;12.05;;;3.25;;
73859;SDS011;62197;51.632;13.700;2023-01-06T06:31:13;11.90;;;4.15;;
73859;SDS011;62197;51.632;13.700;2023-01-06T06:33:41;10.52;;;4.13;;
73859;SDS011;62197;51.632;13.700;2023-01-06T06:36:07;11.32;;;3.70;;
73859;SDS011;62197;51.632;13.700;2023-01-06T06:38:36;12.88;;;4.43;;
73859;SDS011;62197;51.632;13.700;2023-01-06T06:41:02;12.55;;;4.05;;
73859;SDS011;62197;51.632;13.700;2023-01-06T06:43:27;10.15;;;3.95;;
73859;SDS011;62197;51.632;13.700;2023-01-06T06:45:53;13.85;;;3.95;;
73859;SDS011;62197;51.632;13.700;2023-01-06T06:48:18;9.40;;;4.10;;
73859;SDS011;62197;51.632;13.700;2023-01-06T06:50:43;11.00;;;4.32;;
73859;SDS011;62197;51.632;13.700;2023-01-06T06:53:09;11.18;;;4.38;;
73859;SDS011;62197;51.632;13.700;2023-01-06T06:55:34;11.93;;;5.03;;
73859;SDS011;62197;51.632;13.700;2023-01-06T06:57:59;17.33;;;4.32;;
73859;SDS011;62197;51.632;13.700;2023-01-06T07:00:25;12.80;;;4.25;;
73859;SDS011;62197;51.632;13.700;2023-01-06T07:02:51;13.38;;;5.07;;
73859;SDS011;62197;51.632;13.700;2023-01-06T07:05:16;12.15;;;4.25;;
73859;SDS011;62197;51.632;13.700;2023-01-06T07:07:42;11.23;;;4.30;;
73859;SDS011;62197;51.632;13.700;2023-01-06T07:10:10;14.57;;;4.65;;
73859;SDS011;62197;51.632;13.700;2023-01-06T07:12:37;16.83;;;5.57;;
73859;SDS011;62197;51.632;13.700;2023-01-06T07:15:02;14.20;;;5.40;;
73859;SDS011;62197;51.632;13.700;2023-01-06T07:17:28;8.38;;;3.85;;
73859;SDS011;62197;51.632;13.700;2023-01-06T07:19:53;12.00;;;4.75;;
73859;SDS011;62197;51.632;13.700;2023-01-06T07:24:44;13.18;;;4.95;;
73859;SDS011;62197;51.632;13.700;2023-01-06T07:27:12;15.77;;;5.22;;
73859;SDS011;62197;51.632;13.700;2023-01-06T07:29:37;16.63;;;5.22;;
73859;SDS011;62197;51.632;13.700;2023-01-06T07:32:03;12.35;;;4.95;;
73859;SDS011;62197;51.632;13.700;2023-01-06T07:34:29;15.65;;;5.00;;
73859;SDS011;62197;51.632;13.700;2023-01-06T07:36:55;9.38;;;5.22;;
73859;SDS011;62197;51.632;13.700;2023-01-06T07:39:20;11.43;;;4.82;;
73859;SDS011;62197;51.632;13.700;2023-01-06T07:44:11;11.43;;;4.47;;
73859;SDS011;62197;51.632;13.700;2023-01-06T07:46:36;10.85;;;4.10;;
73859;SDS011;62197;51.632;13.700;2023-01-06T07:49:01;14.25;;;5.35;;
73859;SDS011;62197;51.632;13.700;2023-01-06T07:51:27;12.25;;;4.63;;
73859;SDS011;62197;51.632;13.700;2023-01-06T07:53:52;10.55;;;4.28;;
73859;SDS011;62197;51.632;13.700;2023-01-06T07:58:43;12.33;;;5.27;;
73859;SDS011;62197;51.632;13.700;2023-01-06T08:01:08;12.32;;;5.00;;
73859;SDS011;62197;51.632;13.700;2023-01-06T08:03:34;11.13;;;5.43;;
73859;SDS011;62197;51.632;13.700;2023-01-06T08:06:03;11.70;;;5.63;;
73859;SDS011;62197;51.632;13.700;2023-01-06T08:08:30;12.32;;;5.40;;
73859;SDS011;62197;51.632;13.700;2023-01-06T08:10:56;8.57;;;4.35;;
73859;SDS011;62197;51.632;13.700;2023-01-06T08:13:22;11.23;;;4.75;;
73859;SDS011;62197;51.632;13.700;2023-01-06T08:15:47;13.00;;;4.32;;
73859;SDS011;62197;51.632;13.700;2023-01-06T08:18:15;8.27;;;4.07;;
73859;SDS011;62197;51.632;13.700;2023-01-06T08:20:41;9.88;;;4.95;;
73859;SDS011;62197;51.632;13.700;2023-01-06T08:23:08;15.50;;;5.25;;
73859;SDS011;62197;51.632;13.700;2023-01-06T08:25:34;12.32;;;5.05;;
73859;SDS011;62197;51.632;13.700;2023-01-06T08:28:00;9.20;;;4.90;;
73859;SDS011;62197;51.632;13.700;2023-01-06T08:30:25;10.00;;;4.97;;
73859;SDS011;62197;51.632;13.700;2023-01-06T08:32:54;7.90;;;4.53;;
73859;SDS011;62197;51.632;13.700;2023-01-06T08:35:20;11.80;;;4.90;;
73859;SDS011;62197;51.632;13.700;2023-01-06T08:37:45;8.98;;;4.90;;
73859;SDS011;62197;51.632;13.700;2023-01-06T08:40:11;10.32;;;4.47;;
73859;SDS011;62197;51.632;13.700;2023-01-06T08:42:36;9.48;;;4.45;;
73859;SDS011;62197;51.632;13.700;2023-01-06T08:45:02;9.98;;;4.28;;
73859;SDS011;62197;51.632;13.700;2023-01-06T08:47:27;10.02;;;4.95;;
73859;SDS011;62197;51.632;13.700;2023-01-06T08:49:52;9.02;;;4.72;;
73859;SDS011;62197;51.632;13.700;2023-01-06T08:52:18;8.27;;;4.32;;
73859;SDS011;62197;51.632;13.700;2023-01-06T08:54:43;12.40;;;5.10;;
73859;SDS011;62197;51.632;13.700;2023-01-06T08:57:08;9.50;;;5.53;;
73859;SDS011;62197;51.632;13.700;2023-01-06T09:02:00;9.23;;;4.67;;
73859;SDS011;62197;51.632;13.700;2023-01-06T09:04:25;7.25;;;3.92;;
73859;SDS011;62197;51.632;13.700;2023-01-06T09:06:50;9.40;;;4.72;;
73859;SDS011;62197;51.632;13.700;2023-01-06T09:09:16;10.02;;;4.55;;
73859;SDS011;62197;51.632;13.700;2023-01-06T09:11:42;10.55;;;4.78;;
73859;SDS011;62197;51.632;13.700;2023-01-06T09:14:10;11.38;;;5.40;;
73859;SDS011;62197;51.632;13.700;2023-01-06T09:16:37;10.20;;;4.25;;
73859;SDS011;62197;51.632;13.700;2023-01-06T09:19:03;10.60;;;5.65;;
73859;SDS011;62197;51.632;13.700;2023-01-06T09:21:29;15.70;;;8.10;;
73859;SDS011;62197;51.632;13.700;2023-01-06T09:23:54;19.02;;;8.45;;
73859;SDS011;62197;51.632;13.700;2023-01-06T09:26:22;12.30;;;6.18;;
73859;SDS011;62197;51.632;13.700;2023-01-06T09:31:13;9.17;;;6.27;;
73859;SDS011;62197;51.632;13.700;2023-01-06T09:33:38;9.80;;;5.28;;
73859;SDS011;62197;51.632;13.700;2023-01-06T09:36:04;11.43;;;5.05;;
73859;SDS011;62197;51.632;13.700;2023-01-06T09:38:31;10.40;;;5.63;;
73859;SDS011;62197;51.632;13.700;2023-01-06T09:46:02;9.32;;;4.95;;
73859;SDS011;62197;51.632;13.700;2023-01-06T09:48:38;9.25;;;4.30;;
73859;SDS011;62197;51.632;13.700;2023-01-06T09:51:06;11.75;;;4.68;;
73859;SDS011;62197;51.632;13.700;2023-01-06T09:53:39;10.70;;;4.80;;
73859;SDS011;62197;51.632;13.700;2023-01-06T09:56:14;9.57;;;4.68;;
73859;SDS011;62197;51.632;13.700;2023-01-06T09:58:43;8.70;;;4.75;;
73859;SDS011;62197;51.632;13.700;2023-01-06T10:01:30;11.80;;;4.80;;
73859;SDS011;62197;51.632;13.700;2023-01-06T10:04:01;9.88;;;4.28;;
73859;SDS011;62197;51.632;13.700;2023-01-06T10:14:34;6.68;;;3.45;;
73859;SDS011;62197;51.632;13.700;2023-01-06T10:22:26;9.13;;;4.25;;
73859;SDS011;62197;51.632;13.700;2023-01-06T10:27:41;6.68;;;3.25;;
73859;SDS011;62197;51.632;13.700;2023-01-06T10:30:16;6.47;;;3.92;;
73859;SDS011;62197;51.632;13.700;2023-01-06T10:32:43;7.85;;;3.38;;
73859;SDS011;62197;51.632;13.700;2023-01-06T10:35:12;8.15;;;4.60;;
73859;SDS011;62197;51.632;13.700;2023-01-06T10:37:42;6.47;;;3.63;;
73859;SDS011;62197;51.632;13.700;2023-01-06T10:40:18;10.85;;;3.78;;
73859;SDS011;62197;51.632;13.700;2023-01-06T10:42:57;8.15;;;4.20;;
73859;SDS011;62197;51.632;13.700;2023-01-06T10:45:31;5.18;;;2.70;;
73859;SDS011;62197;51.632;13.700;2023-01-06T10:48:01;6.93;;;2.90;;
73859;SDS011;62197;51.632;13.700;2023-01-06T10:50:28;7.15;;;3.90;;
73859;SDS011;62197;51.632;13.700;2023-01-06T10:57:49;4.15;;;2.35;;
73859;SDS011;62197;51.632;13.700;2023-01-06T11:00:21;5.35;;;2.65;;
73859;SDS011;62197;51.632;13.700;2023-01-06T11:02:52;6.40;;;3.20;;
73859;SDS011;62197;51.632;13.700;2023-01-06T11:05:23;5.53;;;3.30;;
73859;SDS011;62197;51.632;13.700;2023-01-06T11:08:10;5.55;;;2.90;;
73859;SDS011;62197;51.632;13.700;2023-01-06T11:10:51;6.85;;;4.13;;
73859;SDS011;62197;51.632;13.700;2023-01-06T11:13:25;7.80;;;4.32;;
73859;SDS011;62197;51.632;13.700;2023-01-06T11:18:24;5.20;;;2.67;;
73859;SDS011;62197;51.632;13.700;2023-01-06T11:21:02;5.20;;;2.17;;
73859;SDS011;62197;51.632;13.700;2023-01-06T11:23:28;5.60;;;2.92;;
73859;SDS011;62197;51.632;13.700;2023-01-06T11:28:27;5.05;;;3.13;;
73859;SDS011;62197;51.632;13.700;2023-01-06T11:33:20;3.95;;;1.80;;
73859;SDS011;62197;51.632;13.700;2023-01-06T11:35:48;4.85;;;2.00;;
73859;SDS011;62197;51.632;13.700;2023-01-06T11:38:15;4.93;;;2.78;;
73859;SDS011;62197;51.632;13.700;2023-01-06T11:40:43;4.80;;;1.90;;
73859;SDS011;62197;51.632;13.700;2023-01-06T11:43:11;4.57;;;1.70;;
73859;SDS011;62197;51.632;13.700;2023-01-06T11:45:41;2.60;;;1.48;;
73859;SDS011;62197;51.632;13.700;2023-01-06T11:48:12;5.40;;;1.80;;
73859;SDS011;62197;51.632;13.700;2023-01-06T11:50:48;3.75;;;1.80;;
73859;SDS011;62197;51.632;13.700;2023-01-06T11:53:35;2.88;;;1.20;;
73859;SDS011;62197;51.632;13.700;2023-01-06T11:56:04;2.58;;;1.40;;
73859;SDS011;62197;51.632;13.700;2023-01-06T11:58:39;2.15;;;1.30;;
73859;SDS011;62197;51.632;13.700;2023-01-06T12:01:11;1.88;;;1.27;;
73859;SDS011;62197;51.632;13.700;2023-01-06T12:03:43;1.70;;;1.20;;
73859;SDS011;62197;51.632;13.700;2023-01-06T12:06:13;1.98;;;1.10;;
73859;SDS011;62197;51.632;13.700;2023-01-06T12:08:52;1.20;;;1.00;;
73859;SDS011;62197;51.632;13.700;2023-01-06T12:13:49;2.25;;;0.98;;
73859;SDS011;62197;51.632;13.700;2023-01-06T12:16:19;2.95;;;0.90;;
73859;SDS011;62197;51.632;13.700;2023-01-06T12:18:53;2.45;;;0.80;;
73859;SDS011;62197;51.632;13.700;2023-01-06T12:21:24;2.75;;;1.33;;
73859;SDS011;62197;51.632;13.700;2023-01-06T12:23:53;2.42;;;0.80;;
73859;SDS011;62197;51.632;13.700;2023-01-06T12:26:22;1.20;;;0.70;;
73859;SDS011;62197;51.632;13.700;2023-01-06T12:28:48;1.40;;;0.85;;
73859;SDS011;62197;51.632;13.700;2023-01-06T12:31:25;2.13;;;0.80;;
73859;SDS011;62197;51.632;13.700;2023-01-06T12:40:00;2.42;;;0.75;;
73859;SDS011;62197;51.632;13.700;2023-01-06T12:42:36;1.75;;;1.10;;
73859;SDS011;62197;51.632;13.700;2023-01-06T12:45:10;0.60;;;0.32;;
73859;SDS011;62197;51.632;13.700;2023-01-06T12:47:54;0.60;;;0.50;;
73859;SDS011;62197;51.632;13.700;2023-01-06T12:50:35;1.00;;;0.60;;
73859;SDS011;62197;51.632;13.700;2023-01-06T12:53:16;0.85;;;0.57;;
73859;SDS011;62197;51.632;13.700;2023-01-06T13:01:07;1.27;;;0.30;;
73859;SDS011;62197;51.632;13.700;2023-01-06T13:09:08;1.45;;;0.43;;
73859;SDS011;62197;51.632;13.700;2023-01-06T13:11:53;0.77;;;0.30;;
73859;SDS011;62197;51.632;13.700;2023-01-06T13:14:44;0.40;;;0.20;;
73859;SDS011;62197;51.632;13.700;2023-01-06T13:20:03;0.45;;;0.22;;
73859;SDS011;62197;51.632;13.700;2023-01-06T13:31:30;0.73;;;0.22;;
73859;SDS011;62197;51.632;13.700;2023-01-06T13:34:17;0.40;;;0.20;;
73859;SDS011;62197;51.632;13.700;2023-01-06T13:39:43;0.82;;;0.20;;
73859;SDS011;62197;51.632;13.700;2023-01-06T13:44:42;0.80;;;0.10;;
73859;SDS011;62197;51.632;13.700;2023-01-06T13:47:11;0.60;;;0.10;;
73859;SDS011;62197;51.632;13.700;2023-01-06T13:49:43;0.40;;;0.20;;
73859;SDS011;62197;51.632;13.700;2023-01-06T13:59:49;1.23;;;0.30;;
73859;SDS011;62197;51.632;13.700;2023-01-06T14:04:58;1.17;;;0.20;;
73859;SDS011;62197;51.632;13.700;2023-01-06T14:07:32;0.85;;;0.28;;
73859;SDS011;62197;51.632;13.700;2023-01-06T14:10:31;0.80;;;0.30;;
73859;SDS011;62197;51.632;13.700;2023-01-06T14:13:16;2.28;;;0.50;;
73859;SDS011;62197;51.632;13.700;2023-01-06T14:15:50;0.20;;;0.10;;
73859;SDS011;62197;51.632;13.700;2023-01-06T14:18:33;0.43;;;0.15;;
73859;SDS011;62197;51.632;13.700;2023-01-06T14:21:02;0.40;;;0.15;;
73859;SDS011;62197;51.632;13.700;2023-01-06T14:23:49;0.50;;;0.20;;
73859;SDS011;62197;51.632;13.700;2023-01-06T14:26:14;0.40;;;0.30;;
73859;SDS011;62197;51.632;13.700;2023-01-06T14:36:21;0.32;;;0.10;;
73859;SDS011;62197;51.632;13.700;2023-01-06T14:38:51;1.08;;;0.10;;
73859;SDS011;62197;51.632;13.700;2023-01-06T14:41:42;1.30;;;0.20;;
73859;SDS011;62197;51.632;13.700;2023-01-06T14:44:14;1.20;;;0.20;;
73859;SDS011;62197;51.632;13.700;2023-01-06T14:46:43;0.10;;;0.10;;
73859;SDS011;62197;51.632;13.700;2023-01-06T14:49:14;2.35;;;0.25;;
73859;SDS011;62197;51.632;13.700;2023-01-06T14:51:44;1.60;;;0.17;;
73859;SDS011;62197;51.632;13.700;2023-01-06T14:54:17;1.08;;;0.30;;
73859;SDS011;62197;51.632;13.700;2023-01-06T14:59:18;3.45;;;0.40;;
73859;SDS011;62197;51.632;13.700;2023-01-06T15:01:52;0.40;;;0.10;;
73859;SDS011;62197;51.632;13.700;2023-01-06T15:04:24;0.57;;;0.20;;
73859;SDS011;62197;51.632;13.700;2023-01-06T15:06:57;0.60;;;0.20;;
73859;SDS011;62197;51.632;13.700;2023-01-06T15:09:27;0.57;;;0.30;;
73859;SDS011;62197;51.632;13.700;2023-01-06T15:11:53;1.20;;;0.22;;
73859;SDS011;62197;51.632;13.700;2023-01-06T15:16:58;0.73;;;0.30;;
73859;SDS011;62197;51.632;13.700;2023-01-06T15:19:28;1.48;;;0.10;;
73859;SDS011;62197;51.632;13.700;2023-01-06T15:21:54;1.13;;;0.20;;
73859;SDS011;62197;51.632;13.700;2023-01-06T15:24:22;0.32;;;0.10;;
73859;SDS011;62197;51.632;13.700;2023-01-06T15:26:50;1.88;;;0.20;;
73859;SDS011;62197;51.632;13.700;2023-01-06T15:29:17;0.93;;;0.40;;
73859;SDS011;62197;51.632;13.700;2023-01-06T15:31:44;1.35;;;0.35;;
73859;SDS011;62197;51.632;13.700;2023-01-06T15:34:19;0.35;;;0.30;;
73859;SDS011;62197;51.632;13.700;2023-01-06T15:36:47;0.73;;;0.30;;
73859;SDS011;62197;51.632;13.700;2023-01-06T15:39:20;2.03;;;0.30;;
73859;SDS011;62197;51.632;13.700;2023-01-06T15:41:50;0.30;;;0.20;;
73859;SDS011;62197;51.632;13.700;2023-01-06T15:44:19;0.75;;;0.30;;
73859;SDS011;62197;51.632;13.700;2023-01-06T15:47:01;0.60;;;0.10;;
73859;SDS011;62197;51.632;13.700;2023-01-06T15:52:03;1.02;;;0.30;;
73859;SDS011;62197;51.632;13.700;2023-01-06T15:54:31;2.15;;;0.10;;
73859;SDS011;62197;51.632;13.700;2023-01-06T15:57:00;0.82;;;0.30;;
73859;SDS011;62197;51.632;13.700;2023-01-06T15:59:26;0.50;;;0.28;;
73859;SDS011;62197;51.632;13.700;2023-01-06T16:04:18;0.73;;;0.32;;
73859;SDS011;62197;51.632;13.700;2023-01-06T16:06:45;0.55;;;0.20;;
73859;SDS011;62197;51.632;13.700;2023-01-06T16:12:06;0.47;;;0.10;;
73859;SDS011;62197;51.632;13.700;2023-01-06T16:14:40;1.50;;;0.30;;
73859;SDS011;62197;51.632;13.700;2023-01-06T16:17:14;0.60;;;0.30;;
73859;SDS011;62197;51.632;13.700;2023-01-06T16:19:58;0.28;;;0.22;;
73859;SDS011;62197;51.632;13.700;2023-01-06T16:25:45;0.57;;;0.47;;
73859;SDS011;62197;51.632;13.700;2023-01-06T16:27:45;0.80;;;0.50;;
73859;SDS011;62197;51.632;13.700;2023-01-06T16:35:10;0.60;;;0.30;;
73859;SDS011;62197;51.632;13.700;2023-01-06T16:37:38;0.95;;;0.30;;
73859;SDS011;62197;51.632;13.700;2023-01-06T16:42:33;2.92;;;0.50;;
73859;SDS011;62197;51.632;13.700;2023-01-06T16:45:12;0.98;;;0.40;;
73859;SDS011;62197;51.632;13.700;2023-01-06T16:47:41;2.83;;;0.57;;
73859;SDS011;62197;51.632;13.700;2023-01-06T16:50:21;1.15;;;0.50;;
73859;SDS011;62197;51.632;13.700;2023-01-06T16:53:01;0.93;;;0.43;;
73859;SDS011;62197;51.632;13.700;2023-01-06T16:55:35;2.08;;;0.40;;
73859;SDS011;62197;51.632;13.700;2023-01-06T16:58:04;1.23;;;0.40;;
73859;SDS011;62197;51.632;13.700;2023-01-06T17:00:37;1.17;;;0.40;;
73859;SDS011;62197;51.632;13.700;2023-01-06T17:03:09;1.67;;;0.50;;
73859;SDS011;62197;51.632;13.700;2023-01-06T17:05:37;1.42;;;0.60;;
73859;SDS011;62197;51.632;13.700;2023-01-06T17:10:29;0.95;;;0.47;;
73859;SDS011;62197;51.632;13.700;2023-01-06T17:15:40;0.50;;;0.40;;